sensor_id;sensor_type;location;lat;lon;timestamp;temperature;humidity
6118;DHT22;3089;48.202;11.510;2023-05-10T00:01:17;16.70;99.90
6118;DHT22;3089;48.202;11.510;2023-05-10T00:03:45;16.80;99.90
6118;DHT22;3089;48.202;11.510;2023-05-10T00:06:13;16.70;99.90
6118;DHT22;3089;48.202;11.510;2023-05-10T00:08:40;16.70;99.90
6118;DHT22;3089;48.202;11.510;2023-05-10T00:11:08;16.70;99.90
6118;DHT22;3089;48.202;11.510;2023-05-10T00:13:36;16.70;99.90
6118;DHT22;3089;48.202;11.510;2023-05-10T00:16:05;16.60;99.90
6118;DHT22;3089;48.202;11.510;2023-05-10T00:18:34;16.70;99.90
6118;DHT22;3089;48.202;11.510;2023-05-10T00:21:02;16.60;99.90
6118;DHT22;3089;48.202;11.510;2023-05-10T00:23:30;16.60;99.90
6118;DHT22;3089;48.202;11.510;2023-05-10T00:25:57;16.50;99.90
6118;DHT22;3089;48.202;11.510;2023-05-10T00:28:27;16.50;99.90
6118;DHT22;3089;48.202;11.510;2023-05-10T00:30:55;16.50;99.90
6118;DHT22;3089;48.202;11.510;2023-05-10T00:33:23;16.50;99.90
6118;DHT22;3089;48.202;11.510;2023-05-10T00:35:52;16.50;99.90
6118;DHT22;3089;48.202;11.510;2023-05-10T00:38:20;16.40;99.90
6118;DHT22;3089;48.202;11.510;2023-05-10T00:40:48;16.50;99.90
6118;DHT22;3089;48.202;11.510;2023-05-10T00:43:16;16.40;99.90
6118;DHT22;3089;48.202;11.510;2023-05-10T00:45:44;16.40;99.90
6118;DHT22;3089;48.202;11.510;2023-05-10T00:48:13;16.40;99.90
6118;DHT22;3089;48.202;11.510;2023-05-10T00:50:41;16.30;99.90
6118;DHT22;3089;48.202;11.510;2023-05-10T00:53:10;16.40;99.90
6118;DHT22;3089;48.202;11.510;2023-05-10T00:55:38;16.30;99.90
6118;DHT22;3089;48.202;11.510;2023-05-10T00:58:06;16.30;99.90
6118;DHT22;3089;48.202;11.510;2023-05-10T01:00:34;16.30;99.90
6118;DHT22;3089;48.202;11.510;2023-05-10T01:03:03;16.30;99.90
6118;DHT22;3089;48.202;11.510;2023-05-10T01:05:31;16.20;99.90
6118;DHT22;3089;48.202;11.510;2023-05-10T01:07:59;16.20;99.90
6118;DHT22;3089;48.202;11.510;2023-05-10T01:10:29;16.20;99.90
6118;DHT22;3089;48.202;11.510;2023-05-10T01:12:58;16.10;99.90
6118;DHT22;3089;48.202;11.510;2023-05-10T01:15:27;16.10;99.90
6118;DHT22;3089;48.202;11.510;2023-05-10T01:17:56;16.10;99.90
6118;DHT22;3089;48.202;11.510;2023-05-10T01:20:24;16.10;99.90
6118;DHT22;3089;48.202;11.510;2023-05-10T01:23:24;16.20;99.90
6118;DHT22;3089;48.202;11.510;2023-05-10T01:29:13;16.10;99.90
6118;DHT22;3089;48.202;11.510;2023-05-10T01:32:10;16.00;99.90
6118;DHT22;3089;48.202;11.510;2023-05-10T01:34:48;16.00;99.90
6118;DHT22;3089;48.202;11.510;2023-05-10T01:37:21;16.00;99.90
6118;DHT22;3089;48.202;11.510;2023-05-10T01:39:58;16.00;99.90
6118;DHT22;3089;48.202;11.510;2023-05-10T01:42:31;16.00;99.90
6118;DHT22;3089;48.202;11.510;2023-05-10T01:45:10;15.90;99.90
6118;DHT22;3089;48.202;11.510;2023-05-10T01:47:44;15.90;99.90
6118;DHT22;3089;48.202;11.510;2023-05-10T01:50:18;16.10;99.90
6118;DHT22;3089;48.202;11.510;2023-05-10T01:52:51;15.90;99.90
6118;DHT22;3089;48.202;11.510;2023-05-10T01:55:21;15.90;99.90
6118;DHT22;3089;48.202;11.510;2023-05-10T01:57:55;15.90;99.90
6118;DHT22;3089;48.202;11.510;2023-05-10T02:00:25;15.80;99.90
6118;DHT22;3089;48.202;11.510;2023-05-10T02:02:55;15.80;99.90
6118;DHT22;3089;48.202;11.510;2023-05-10T02:05:24;15.80;99.90
6118;DHT22;3089;48.202;11.510;2023-05-10T02:07:52;15.70;99.90
6118;DHT22;3089;48.202;11.510;2023-05-10T02:10:20;15.70;99.90
6118;DHT22;3089;48.202;11.510;2023-05-10T02:12:49;15.70;99.90
6118;DHT22;3089;48.202;11.510;2023-05-10T02:15:22;15.70;99.90
6118;DHT22;3089;48.202;11.510;2023-05-10T02:17:50;15.70;99.90
6118;DHT22;3089;48.202;11.510;2023-05-10T02:20:22;15.60;99.90
6118;DHT22;3089;48.202;11.510;2023-05-10T02:22:52;15.60;99.90
6118;DHT22;3089;48.202;11.510;2023-05-10T02:25:23;15.70;99.90
6118;DHT22;3089;48.202;11.510;2023-05-10T02:27:52;15.60;99.90
6118;DHT22;3089;48.202;11.510;2023-05-10T02:30:22;15.60;99.90
6118;DHT22;3089;48.202;11.510;2023-05-10T02:32:51;15.60;99.90
6118;DHT22;3089;48.202;11.510;2023-05-10T02:35:22;15.60;99.90
6118;DHT22;3089;48.202;11.510;2023-05-10T02:37:51;15.50;99.90
6118;DHT22;3089;48.202;11.510;2023-05-10T02:40:20;15.50;99.90
6118;DHT22;3089;48.202;11.510;2023-05-10T02:42:50;15.50;99.90
6118;DHT22;3089;48.202;11.510;2023-05-10T02:45:23;15.50;99.90
6118;DHT22;3089;48.202;11.510;2023-05-10T02:47:55;15.40;99.90
6118;DHT22;3089;48.202;11.510;2023-05-10T02:50:27;15.40;99.90
6118;DHT22;3089;48.202;11.510;2023-05-10T02:53:00;15.40;99.90
6118;DHT22;3089;48.202;11.510;2023-05-10T02:55:35;15.40;99.90
6118;DHT22;3089;48.202;11.510;2023-05-10T02:58:04;15.40;99.90
6118;DHT22;3089;48.202;11.510;2023-05-10T03:00:32;15.40;99.90
6118;DHT22;3089;48.202;11.510;2023-05-10T03:03:00;15.40;99.90
6118;DHT22;3089;48.202;11.510;2023-05-10T03:05:29;15.40;99.90
6118;DHT22;3089;48.202;11.510;2023-05-10T03:07:57;15.40;99.90
6118;DHT22;3089;48.202;11.510;2023-05-10T03:10:27;15.40;99.90
6118;DHT22;3089;48.202;11.510;2023-05-10T03:13:07;15.40;99.90
6118;DHT22;3089;48.202;11.510;2023-05-10T03:15:44;15.40;99.90
6118;DHT22;3089;48.202;11.510;2023-05-10T03:18:17;15.40;99.90
6118;DHT22;3089;48.202;11.510;2023-05-10T03:20:48;15.40;99.90
6118;DHT22;3089;48.202;11.510;2023-05-10T03:23:22;15.40;99.90
6118;DHT22;3089;48.202;11.510;2023-05-10T03:25:54;15.30;99.90
6118;DHT22;3089;48.202;11.510;2023-05-10T03:28:25;15.30;99.90
6118;DHT22;3089;48.202;11.510;2023-05-10T03:30:53;15.30;99.90
6118;DHT22;3089;48.202;11.510;2023-05-10T03:33:22;15.30;99.90
6118;DHT22;3089;48.202;11.510;2023-05-10T03:35:51;15.30;99.90
6118;DHT22;3089;48.202;11.510;2023-05-10T03:38:19;15.30;99.90
6118;DHT22;3089;48.202;11.510;2023-05-10T03:40:47;15.30;99.90
6118;DHT22;3089;48.202;11.510;2023-05-10T03:43:14;15.30;99.90
6118;DHT22;3089;48.202;11.510;2023-05-10T03:45:42;15.20;99.90
6118;DHT22;3089;48.202;11.510;2023-05-10T03:48:10;15.20;99.90
6118;DHT22;3089;48.202;11.510;2023-05-10T03:50:40;15.20;99.90
6118;DHT22;3089;48.202;11.510;2023-05-10T03:53:09;15.20;99.90
6118;DHT22;3089;48.202;11.510;2023-05-10T03:55:37;15.20;99.90
6118;DHT22;3089;48.202;11.510;2023-05-10T03:58:04;15.20;99.90
6118;DHT22;3089;48.202;11.510;2023-05-10T04:00:32;15.20;99.90
6118;DHT22;3089;48.202;11.510;2023-05-10T04:03:00;15.20;99.90
6118;DHT22;3089;48.202;11.510;2023-05-10T04:05:28;15.20;99.90
6118;DHT22;3089;48.202;11.510;2023-05-10T04:07:57;15.20;99.90
6118;DHT22;3089;48.202;11.510;2023-05-10T04:10:26;15.20;99.90
6118;DHT22;3089;48.202;11.510;2023-05-10T04:12:54;15.20;99.90
6118;DHT22;3089;48.202;11.510;2023-05-10T04:15:22;15.00;99.90
6118;DHT22;3089;48.202;11.510;2023-05-10T04:17:50;15.20;99.90
6118;DHT22;3089;48.202;11.510;2023-05-10T04:20:18;15.20;99.90
6118;DHT22;3089;48.202;11.510;2023-05-10T04:22:46;15.20;99.90
6118;DHT22;3089;48.202;11.510;2023-05-10T04:25:13;15.10;99.90
6118;DHT22;3089;48.202;11.510;2023-05-10T04:27:43;15.10;99.90
6118;DHT22;3089;48.202;11.510;2023-05-10T04:30:11;15.10;99.90
6118;DHT22;3089;48.202;11.510;2023-05-10T04:32:39;15.00;99.90
6118;DHT22;3089;48.202;11.510;2023-05-10T04:35:07;15.20;99.90
6118;DHT22;3089;48.202;11.510;2023-05-10T04:37:36;15.10;99.90
6118;DHT22;3089;48.202;11.510;2023-05-10T04:40:05;15.00;99.90
6118;DHT22;3089;48.202;11.510;2023-05-10T04:42:33;15.10;99.90
6118;DHT22;3089;48.202;11.510;2023-05-10T04:45:03;15.00;99.90
6118;DHT22;3089;48.202;11.510;2023-05-10T04:47:30;15.00;99.90
6118;DHT22;3089;48.202;11.510;2023-05-10T04:49:59;15.00;99.90
6118;DHT22;3089;48.202;11.510;2023-05-10T04:52:27;15.00;99.90
6118;DHT22;3089;48.202;11.510;2023-05-10T04:54:55;15.10;99.90
6118;DHT22;3089;48.202;11.510;2023-05-10T04:57:23;15.00;99.90
6118;DHT22;3089;48.202;11.510;2023-05-10T04:59:51;14.90;99.90
6118;DHT22;3089;48.202;11.510;2023-05-10T05:02:20;14.90;99.90
6118;DHT22;3089;48.202;11.510;2023-05-10T05:04:48;15.00;99.90
6118;DHT22;3089;48.202;11.510;2023-05-10T05:07:16;14.90;99.90
6118;DHT22;3089;48.202;11.510;2023-05-10T05:09:44;14.80;99.90
6118;DHT22;3089;48.202;11.510;2023-05-10T05:12:11;14.80;99.90
6118;DHT22;3089;48.202;11.510;2023-05-10T05:14:40;14.80;99.90
6118;DHT22;3089;48.202;11.510;2023-05-10T05:17:08;14.90;99.90
6118;DHT22;3089;48.202;11.510;2023-05-10T05:19:37;14.80;99.90
6118;DHT22;3089;48.202;11.510;2023-05-10T05:22:06;14.80;99.90
6118;DHT22;3089;48.202;11.510;2023-05-10T05:24:35;14.80;99.90
6118;DHT22;3089;48.202;11.510;2023-05-10T05:27:03;14.50;99.90
6118;DHT22;3089;48.202;11.510;2023-05-10T05:29:32;14.50;99.90
6118;DHT22;3089;48.202;11.510;2023-05-10T05:32:00;14.30;99.90
6118;DHT22;3089;48.202;11.510;2023-05-10T05:34:28;14.50;99.90
6118;DHT22;3089;48.202;11.510;2023-05-10T05:36:57;14.40;99.90
6118;DHT22;3089;48.202;11.510;2023-05-10T05:39:25;14.60;99.90
6118;DHT22;3089;48.202;11.510;2023-05-10T05:41:52;14.10;99.90
6118;DHT22;3089;48.202;11.510;2023-05-10T05:44:20;14.40;99.90
6118;DHT22;3089;48.202;11.510;2023-05-10T05:46:48;14.30;99.90
6118;DHT22;3089;48.202;11.510;2023-05-10T05:49:16;14.50;99.90
6118;DHT22;3089;48.202;11.510;2023-05-10T05:51:44;14.70;99.90
6118;DHT22;3089;48.202;11.510;2023-05-10T05:54:13;14.80;99.90
6118;DHT22;3089;48.202;11.510;2023-05-10T05:56:41;14.80;99.90
6118;DHT22;3089;48.202;11.510;2023-05-10T05:59:10;14.90;99.90
6118;DHT22;3089;48.202;11.510;2023-05-10T06:01:38;14.80;99.90
6118;DHT22;3089;48.202;11.510;2023-05-10T06:04:06;14.80;99.90
6118;DHT22;3089;48.202;11.510;2023-05-10T06:06:34;14.80;99.90
6118;DHT22;3089;48.202;11.510;2023-05-10T06:09:02;14.90;99.90
6118;DHT22;3089;48.202;11.510;2023-05-10T06:11:32;14.90;99.90
6118;DHT22;3089;48.202;11.510;2023-05-10T06:13:59;14.90;99.90
6118;DHT22;3089;48.202;11.510;2023-05-10T06:16:28;14.80;99.90
6118;DHT22;3089;48.202;11.510;2023-05-10T06:18:55;14.90;99.90
6118;DHT22;3089;48.202;11.510;2023-05-10T06:21:23;14.90;99.90
6118;DHT22;3089;48.202;11.510;2023-05-10T06:23:52;14.80;99.90
6118;DHT22;3089;48.202;11.510;2023-05-10T06:26:19;14.80;99.90
6118;DHT22;3089;48.202;11.510;2023-05-10T06:28:49;14.70;99.90
6118;DHT22;3089;48.202;11.510;2023-05-10T06:31:17;14.60;99.90
6118;DHT22;3089;48.202;11.510;2023-05-10T06:33:45;14.70;99.90
6118;DHT22;3089;48.202;11.510;2023-05-10T06:36:12;14.80;99.90
6118;DHT22;3089;48.202;11.510;2023-05-10T06:38:40;14.90;99.90
6118;DHT22;3089;48.202;11.510;2023-05-10T06:41:08;15.00;99.90
6118;DHT22;3089;48.202;11.510;2023-05-10T06:43:36;14.90;99.90
6118;DHT22;3089;48.202;11.510;2023-05-10T06:46:07;14.80;99.90
6118;DHT22;3089;48.202;11.510;2023-05-10T06:48:35;14.80;99.90
6118;DHT22;3089;48.202;11.510;2023-05-10T06:51:03;14.80;99.90
6118;DHT22;3089;48.202;11.510;2023-05-10T06:53:31;14.80;99.90
6118;DHT22;3089;48.202;11.510;2023-05-10T06:55:59;15.00;99.90
6118;DHT22;3089;48.202;11.510;2023-05-10T06:58:27;14.90;99.90
6118;DHT22;3089;48.202;11.510;2023-05-10T07:01:01;14.80;99.90
6118;DHT22;3089;48.202;11.510;2023-05-10T07:03:30;14.90;99.90
6118;DHT22;3089;48.202;11.510;2023-05-10T07:06:02;14.90;99.90
6118;DHT22;3089;48.202;11.510;2023-05-10T07:08:30;15.20;99.90
6118;DHT22;3089;48.202;11.510;2023-05-10T07:11:02;15.30;99.90
6118;DHT22;3089;48.202;11.510;2023-05-10T07:13:30;15.70;99.90
6118;DHT22;3089;48.202;11.510;2023-05-10T07:15:59;16.30;99.90
6118;DHT22;3089;48.202;11.510;2023-05-10T07:18:26;16.80;99.90
6118;DHT22;3089;48.202;11.510;2023-05-10T07:20:57;16.70;99.90
6118;DHT22;3089;48.202;11.510;2023-05-10T07:23:24;16.50;99.90
6118;DHT22;3089;48.202;11.510;2023-05-10T07:25:52;15.80;99.90
6118;DHT22;3089;48.202;11.510;2023-05-10T07:28:20;15.50;99.90
6118;DHT22;3089;48.202;11.510;2023-05-10T07:30:48;15.50;99.90
6118;DHT22;3089;48.202;11.510;2023-05-10T07:33:16;16.20;99.90
6118;DHT22;3089;48.202;11.510;2023-05-10T07:35:44;16.00;99.90
6118;DHT22;3089;48.202;11.510;2023-05-10T07:38:13;16.30;99.90
6118;DHT22;3089;48.202;11.510;2023-05-10T07:40:41;16.20;99.90
6118;DHT22;3089;48.202;11.510;2023-05-10T07:43:08;16.10;99.90
6118;DHT22;3089;48.202;11.510;2023-05-10T07:45:36;16.00;99.90
6118;DHT22;3089;48.202;11.510;2023-05-10T07:48:04;15.90;99.90
6118;DHT22;3089;48.202;11.510;2023-05-10T07:50:32;15.70;99.90
6118;DHT22;3089;48.202;11.510;2023-05-10T07:53:00;15.70;99.90
6118;DHT22;3089;48.202;11.510;2023-05-10T07:55:29;15.70;99.90
6118;DHT22;3089;48.202;11.510;2023-05-10T07:57:57;15.60;99.90
6118;DHT22;3089;48.202;11.510;2023-05-10T08:00:27;15.70;99.90
6118;DHT22;3089;48.202;11.510;2023-05-10T08:02:55;15.90;99.90
6118;DHT22;3089;48.202;11.510;2023-05-10T08:05:23;16.10;99.90
6118;DHT22;3089;48.202;11.510;2023-05-10T08:07:50;16.00;99.90
6118;DHT22;3089;48.202;11.510;2023-05-10T08:10:18;16.20;99.90
6118;DHT22;3089;48.202;11.510;2023-05-10T08:12:47;16.50;99.90
6118;DHT22;3089;48.202;11.510;2023-05-10T08:15:15;16.50;99.90
6118;DHT22;3089;48.202;11.510;2023-05-10T08:17:43;16.60;99.90
6118;DHT22;3089;48.202;11.510;2023-05-10T08:20:11;16.70;99.90
6118;DHT22;3089;48.202;11.510;2023-05-10T08:22:43;16.40;99.90
6118;DHT22;3089;48.202;11.510;2023-05-10T08:25:11;16.10;99.90
6118;DHT22;3089;48.202;11.510;2023-05-10T08:27:39;15.80;99.90
6118;DHT22;3089;48.202;11.510;2023-05-10T08:30:09;15.40;99.90
6118;DHT22;3089;48.202;11.510;2023-05-10T08:32:37;15.70;99.90
6118;DHT22;3089;48.202;11.510;2023-05-10T08:35:05;15.80;99.90
6118;DHT22;3089;48.202;11.510;2023-05-10T08:37:33;15.80;99.90
6118;DHT22;3089;48.202;11.510;2023-05-10T08:40:01;15.80;99.90
6118;DHT22;3089;48.202;11.510;2023-05-10T08:42:31;15.90;99.90
6118;DHT22;3089;48.202;11.510;2023-05-10T08:45:03;16.00;99.90
6118;DHT22;3089;48.202;11.510;2023-05-10T08:47:34;16.20;99.90
6118;DHT22;3089;48.202;11.510;2023-05-10T08:50:02;16.00;99.90
6118;DHT22;3089;48.202;11.510;2023-05-10T08:52:33;16.10;99.90
6118;DHT22;3089;48.202;11.510;2023-05-10T08:55:05;16.30;99.90
6118;DHT22;3089;48.202;11.510;2023-05-10T08:57:33;16.40;99.90
6118;DHT22;3089;48.202;11.510;2023-05-10T09:00:01;17.40;99.90
6118;DHT22;3089;48.202;11.510;2023-05-10T09:02:30;17.40;99.90
6118;DHT22;3089;48.202;11.510;2023-05-10T09:05:00;17.60;99.90
6118;DHT22;3089;48.202;11.510;2023-05-10T09:07:28;17.30;99.90
6118;DHT22;3089;48.202;11.510;2023-05-10T09:09:56;17.00;99.90
6118;DHT22;3089;48.202;11.510;2023-05-10T09:12:24;16.90;99.90
6118;DHT22;3089;48.202;11.510;2023-05-10T09:14:52;16.70;99.90
6118;DHT22;3089;48.202;11.510;2023-05-10T09:17:23;16.40;99.90
6118;DHT22;3089;48.202;11.510;2023-05-10T09:19:57;16.20;99.90
6118;DHT22;3089;48.202;11.510;2023-05-10T09:22:26;16.20;99.90
6118;DHT22;3089;48.202;11.510;2023-05-10T09:25:05;16.20;99.90
6118;DHT22;3089;48.202;11.510;2023-05-10T09:27:33;16.10;99.90
6118;DHT22;3089;48.202;11.510;2023-05-10T09:30:01;16.10;99.90
6118;DHT22;3089;48.202;11.510;2023-05-10T09:32:39;16.10;99.90
6118;DHT22;3089;48.202;11.510;2023-05-10T09:35:08;16.10;99.90
6118;DHT22;3089;48.202;11.510;2023-05-10T09:37:39;17.60;99.90
6118;DHT22;3089;48.202;11.510;2023-05-10T09:40:12;18.10;99.90
6118;DHT22;3089;48.202;11.510;2023-05-10T09:42:41;18.00;99.90
6118;DHT22;3089;48.202;11.510;2023-05-10T09:45:09;17.90;99.90
6118;DHT22;3089;48.202;11.510;2023-05-10T09:47:37;18.40;99.90
6118;DHT22;3089;48.202;11.510;2023-05-10T09:50:06;18.30;99.90
6118;DHT22;3089;48.202;11.510;2023-05-10T09:52:48;18.30;99.90
6118;DHT22;3089;48.202;11.510;2023-05-10T09:55:17;18.10;99.90
6118;DHT22;3089;48.202;11.510;2023-05-10T09:57:46;17.60;99.90
6118;DHT22;3089;48.202;11.510;2023-05-10T10:00:19;17.40;99.90
6118;DHT22;3089;48.202;11.510;2023-05-10T10:02:53;17.90;99.90
6118;DHT22;3089;48.202;11.510;2023-05-10T10:05:28;17.60;99.90
6118;DHT22;3089;48.202;11.510;2023-05-10T10:07:58;17.40;99.90
6118;DHT22;3089;48.202;11.510;2023-05-10T10:10:26;17.50;99.90
6118;DHT22;3089;48.202;11.510;2023-05-10T10:12:55;17.50;99.90
6118;DHT22;3089;48.202;11.510;2023-05-10T10:15:24;17.40;99.90
6118;DHT22;3089;48.202;11.510;2023-05-10T10:17:52;17.30;99.90
6118;DHT22;3089;48.202;11.510;2023-05-10T10:20:22;17.90;99.90
6118;DHT22;3089;48.202;11.510;2023-05-10T10:22:50;18.30;99.90
6118;DHT22;3089;48.202;11.510;2023-05-10T10:25:20;18.50;99.90
6118;DHT22;3089;48.202;11.510;2023-05-10T10:28:10;18.40;99.90
6118;DHT22;3089;48.202;11.510;2023-05-10T10:30:42;18.00;99.90
6118;DHT22;3089;48.202;11.510;2023-05-10T10:33:36;18.30;99.90
6118;DHT22;3089;48.202;11.510;2023-05-10T10:36:07;18.40;99.90
6118;DHT22;3089;48.202;11.510;2023-05-10T10:38:56;18.10;99.90
6118;DHT22;3089;48.202;11.510;2023-05-10T10:41:31;17.50;99.90
6118;DHT22;3089;48.202;11.510;2023-05-10T10:44:22;17.60;99.90
6118;DHT22;3089;48.202;11.510;2023-05-10T10:47:03;17.30;99.90
6118;DHT22;3089;48.202;11.510;2023-05-10T10:49:38;17.40;99.90
6118;DHT22;3089;48.202;11.510;2023-05-10T10:52:24;17.50;99.90
6118;DHT22;3089;48.202;11.510;2023-05-10T10:54:59;17.50;99.90
6118;DHT22;3089;48.202;11.510;2023-05-10T10:57:31;17.50;99.90
6118;DHT22;3089;48.202;11.510;2023-05-10T11:00:19;17.50;99.90
6118;DHT22;3089;48.202;11.510;2023-05-10T11:02:49;17.50;99.90
6118;DHT22;3089;48.202;11.510;2023-05-10T11:05:36;17.40;99.90
6118;DHT22;3089;48.202;11.510;2023-05-10T11:08:15;17.30;99.90
6118;DHT22;3089;48.202;11.510;2023-05-10T11:11:01;17.40;99.90
6118;DHT22;3089;48.202;11.510;2023-05-10T11:13:33;17.60;99.90
6118;DHT22;3089;48.202;11.510;2023-05-10T11:16:15;17.60;99.90
6118;DHT22;3089;48.202;11.510;2023-05-10T11:19:02;17.20;99.90
6118;DHT22;3089;48.202;11.510;2023-05-10T11:21:30;16.90;99.90
6118;DHT22;3089;48.202;11.510;2023-05-10T11:23:59;16.90;99.90
6118;DHT22;3089;48.202;11.510;2023-05-10T11:26:31;16.80;99.90
6118;DHT22;3089;48.202;11.510;2023-05-10T11:29:01;16.80;99.90
6118;DHT22;3089;48.202;11.510;2023-05-10T11:31:30;16.60;99.90
6118;DHT22;3089;48.202;11.510;2023-05-10T11:33:59;16.70;99.90
6118;DHT22;3089;48.202;11.510;2023-05-10T11:36:32;16.70;99.90
6118;DHT22;3089;48.202;11.510;2023-05-10T11:39:00;16.80;99.90
6118;DHT22;3089;48.202;11.510;2023-05-10T11:41:29;16.80;99.90
6118;DHT22;3089;48.202;11.510;2023-05-10T11:43:58;16.70;99.90
6118;DHT22;3089;48.202;11.510;2023-05-10T11:46:28;16.70;99.90
6118;DHT22;3089;48.202;11.510;2023-05-10T11:48:58;16.60;99.90
6118;DHT22;3089;48.202;11.510;2023-05-10T11:51:28;16.70;99.90
6118;DHT22;3089;48.202;11.510;2023-05-10T11:53:57;16.70;99.90
6118;DHT22;3089;48.202;11.510;2023-05-10T11:56:24;16.70;99.90
6118;DHT22;3089;48.202;11.510;2023-05-10T11:58:55;16.70;99.90
6118;DHT22;3089;48.202;11.510;2023-05-10T12:01:24;16.70;99.90
6118;DHT22;3089;48.202;11.510;2023-05-10T12:03:55;16.70;99.90
6118;DHT22;3089;48.202;11.510;2023-05-10T12:06:27;16.70;99.90
6118;DHT22;3089;48.202;11.510;2023-05-10T12:08:55;16.60;99.90
6118;DHT22;3089;48.202;11.510;2023-05-10T12:11:25;16.60;99.90
6118;DHT22;3089;48.202;11.510;2023-05-10T12:13:54;16.60;99.90
6118;DHT22;3089;48.202;11.510;2023-05-10T12:16:24;16.50;99.90
6118;DHT22;3089;48.202;11.510;2023-05-10T12:18:55;16.60;99.90
6118;DHT22;3089;48.202;11.510;2023-05-10T12:21:23;16.50;99.90
6118;DHT22;3089;48.202;11.510;2023-05-10T12:23:52;16.50;99.90
6118;DHT22;3089;48.202;11.510;2023-05-10T12:26:21;16.50;99.90
6118;DHT22;3089;48.202;11.510;2023-05-10T12:28:49;16.30;99.90
6118;DHT22;3089;48.202;11.510;2023-05-10T12:31:17;16.30;99.90
6118;DHT22;3089;48.202;11.510;2023-05-10T12:33:45;16.40;99.90
6118;DHT22;3089;48.202;11.510;2023-05-10T12:36:16;16.20;99.90
6118;DHT22;3089;48.202;11.510;2023-05-10T12:38:45;16.10;99.90
6118;DHT22;3089;48.202;11.510;2023-05-10T12:41:17;16.40;99.90
6118;DHT22;3089;48.202;11.510;2023-05-10T12:43:45;16.00;99.90
6118;DHT22;3089;48.202;11.510;2023-05-10T12:46:14;15.90;99.90
6118;DHT22;3089;48.202;11.510;2023-05-10T12:48:43;16.20;99.90
6118;DHT22;3089;48.202;11.510;2023-05-10T12:51:11;16.20;99.90
6118;DHT22;3089;48.202;11.510;2023-05-10T12:53:43;16.40;99.90
6118;DHT22;3089;48.202;11.510;2023-05-10T12:56:15;16.40;99.90
6118;DHT22;3089;48.202;11.510;2023-05-10T12:58:42;16.20;99.90
6118;DHT22;3089;48.202;11.510;2023-05-10T13:01:14;16.30;99.90
6118;DHT22;3089;48.202;11.510;2023-05-10T13:03:42;16.40;99.90
6118;DHT22;3089;48.202;11.510;2023-05-10T13:06:10;16.40;99.90
6118;DHT22;3089;48.202;11.510;2023-05-10T13:08:39;16.40;99.90
6118;DHT22;3089;48.202;11.510;2023-05-10T13:11:09;16.40;99.90
6118;DHT22;3089;48.202;11.510;2023-05-10T13:13:37;16.40;99.90
6118;DHT22;3089;48.202;11.510;2023-05-10T13:16:05;16.40;99.90
6118;DHT22;3089;48.202;11.510;2023-05-10T13:18:33;16.40;99.90
6118;DHT22;3089;48.202;11.510;2023-05-10T13:21:01;16.40;99.90
6118;DHT22;3089;48.202;11.510;2023-05-10T13:23:30;16.30;99.90
6118;DHT22;3089;48.202;11.510;2023-05-10T13:25:58;16.30;99.90
6118;DHT22;3089;48.202;11.510;2023-05-10T13:28:27;16.30;99.90
6118;DHT22;3089;48.202;11.510;2023-05-10T13:30:55;16.30;99.90
6118;DHT22;3089;48.202;11.510;2023-05-10T13:33:23;16.30;99.90
6118;DHT22;3089;48.202;11.510;2023-05-10T13:35:51;16.30;99.90
6118;DHT22;3089;48.202;11.510;2023-05-10T13:38:21;15.90;99.90
6118;DHT22;3089;48.202;11.510;2023-05-10T13:40:49;16.00;99.90
6118;DHT22;3089;48.202;11.510;2023-05-10T13:43:19;16.10;99.90
6118;DHT22;3089;48.202;11.510;2023-05-10T13:45:48;16.10;99.90
6118;DHT22;3089;48.202;11.510;2023-05-10T13:48:16;16.10;99.90
6118;DHT22;3089;48.202;11.510;2023-05-10T13:50:43;16.10;99.90
6118;DHT22;3089;48.202;11.510;2023-05-10T13:53:11;16.10;99.90
6118;DHT22;3089;48.202;11.510;2023-05-10T13:55:39;16.10;99.90
6118;DHT22;3089;48.202;11.510;2023-05-10T13:58:07;16.10;99.90
6118;DHT22;3089;48.202;11.510;2023-05-10T14:00:35;16.10;99.90
6118;DHT22;3089;48.202;11.510;2023-05-10T14:03:04;16.00;99.90
6118;DHT22;3089;48.202;11.510;2023-05-10T14:05:32;16.10;99.90
6118;DHT22;3089;48.202;11.510;2023-05-10T14:08:00;16.10;99.90
6118;DHT22;3089;48.202;11.510;2023-05-10T14:10:28;16.00;99.90
6118;DHT22;3089;48.202;11.510;2023-05-10T14:12:56;16.00;99.90
6118;DHT22;3089;48.202;11.510;2023-05-10T14:15:24;16.00;99.90
6118;DHT22;3089;48.202;11.510;2023-05-10T14:17:52;16.00;99.90
6118;DHT22;3089;48.202;11.510;2023-05-10T14:20:21;16.00;99.90
6118;DHT22;3089;48.202;11.510;2023-05-10T14:22:49;15.90;99.90
6118;DHT22;3089;48.202;11.510;2023-05-10T14:25:17;15.90;99.90
6118;DHT22;3089;48.202;11.510;2023-05-10T14:27:46;15.80;99.90
6118;DHT22;3089;48.202;11.510;2023-05-10T14:30:14;15.80;99.90
6118;DHT22;3089;48.202;11.510;2023-05-10T14:32:42;15.80;99.90
6118;DHT22;3089;48.202;11.510;2023-05-10T14:35:10;15.70;99.90
6118;DHT22;3089;48.202;11.510;2023-05-10T14:37:42;15.70;99.90
6118;DHT22;3089;48.202;11.510;2023-05-10T14:40:11;15.60;99.90
6118;DHT22;3089;48.202;11.510;2023-05-10T14:42:39;15.60;99.90
6118;DHT22;3089;48.202;11.510;2023-05-10T14:45:07;15.60;99.90
6118;DHT22;3089;48.202;11.510;2023-05-10T14:47:36;15.60;99.90
6118;DHT22;3089;48.202;11.510;2023-05-10T14:50:04;15.50;99.90
6118;DHT22;3089;48.202;11.510;2023-05-10T14:52:32;15.50;99.90
6118;DHT22;3089;48.202;11.510;2023-05-10T14:55:02;15.50;99.90
6118;DHT22;3089;48.202;11.510;2023-05-10T14:57:30;15.50;99.90
6118;DHT22;3089;48.202;11.510;2023-05-10T14:59:58;15.50;99.90
6118;DHT22;3089;48.202;11.510;2023-05-10T15:02:27;15.50;99.90
6118;DHT22;3089;48.202;11.510;2023-05-10T15:04:55;15.50;99.90
6118;DHT22;3089;48.202;11.510;2023-05-10T15:07:24;15.50;99.90
6118;DHT22;3089;48.202;11.510;2023-05-10T15:09:52;15.50;99.90
6118;DHT22;3089;48.202;11.510;2023-05-10T15:12:22;15.50;99.90
6118;DHT22;3089;48.202;11.510;2023-05-10T15:14:49;15.50;99.90
6118;DHT22;3089;48.202;11.510;2023-05-10T15:17:17;15.50;99.90
6118;DHT22;3089;48.202;11.510;2023-05-10T15:19:45;15.50;99.90
6118;DHT22;3089;48.202;11.510;2023-05-10T15:22:13;15.50;99.90
6118;DHT22;3089;48.202;11.510;2023-05-10T15:24:41;15.50;99.90
6118;DHT22;3089;48.202;11.510;2023-05-10T15:27:08;15.50;99.90
6118;DHT22;3089;48.202;11.510;2023-05-10T15:29:37;15.50;99.90
6118;DHT22;3089;48.202;11.510;2023-05-10T15:32:05;15.40;99.90
6118;DHT22;3089;48.202;11.510;2023-05-10T15:34:33;15.40;99.90
6118;DHT22;3089;48.202;11.510;2023-05-10T15:37:02;15.40;99.90
6118;DHT22;3089;48.202;11.510;2023-05-10T15:39:30;15.40;99.90
6118;DHT22;3089;48.202;11.510;2023-05-10T15:41:58;15.40;99.90
6118;DHT22;3089;48.202;11.510;2023-05-10T15:44:26;15.30;99.90
6118;DHT22;3089;48.202;11.510;2023-05-10T15:46:55;15.30;99.90
6118;DHT22;3089;48.202;11.510;2023-05-10T15:49:23;15.30;99.90
6118;DHT22;3089;48.202;11.510;2023-05-10T15:51:51;15.20;99.90
6118;DHT22;3089;48.202;11.510;2023-05-10T15:54:19;15.20;99.90
6118;DHT22;3089;48.202;11.510;2023-05-10T15:56:46;15.20;99.90
6118;DHT22;3089;48.202;11.510;2023-05-10T15:59:14;15.20;99.90
6118;DHT22;3089;48.202;11.510;2023-05-10T16:01:42;15.00;99.90
6118;DHT22;3089;48.202;11.510;2023-05-10T16:04:11;15.10;99.90